Time;durP1;ratioP1;P1;durP2;ratioP2;P2;SDS_P1;SDS_P2;PMS_P1;PMS_P2;Temp;Humidity;BMP_temperature;BMP_pressure;BME280_temperature;BME280_humidity;BME280_pressure;Samples;Min_cycle;Max_cycle;Signal;HPM_P1;HPM_P2
2023/03/16 10:11:26;;;;;;;17.40;16.30;;;13.80;90.80;;;;;;5146119;27;20565;-76
2023/03/16 10:14:00;;;;;;;16.67;15.57;;;14.60;85.40;;;;;;5128044;27;20455;-75
2023/03/16 10:16:32;;;;;;;16.27;14.97;;;14.40;84.90;;;;;;5127823;27;20478;-76
2023/03/16 10:19:02;;;;;;;16.00;15.10;;;15.00;83.60;;;;;;5127487;27;20943;-78
2023/03/16 10:21:34;;;;;;;15.23;14.50;;;14.80;82.30;;;;;;5127524;27;20525;-77
2023/03/16 10:24:03;;;;;;;16.23;15.27;;;14.40;82.50;;;;;;5127524;27;20445;-76
2023/03/16 10:26:36;;;;;;;16.57;15.60;;;14.40;82.20;;;;;;5127402;27;20849;-77
2023/03/16 10:29:06;;;;;;;15.73;14.73;;;14.90;82.60;;;;;;5127483;27;20480;-76
2023/03/16 10:31:35;;;;;;;14.43;13.53;;;15.40;79.70;;;;;;5127453;27;20453;-76
2023/03/16 10:34:05;;;;;;;16.90;15.40;;;14.70;80.80;;;;;;5127590;27;20483;-75
2023/03/16 10:36:35;;;;;;;14.90;14.20;;;15.00;79.20;;;;;;5127480;27;20787;-75
2023/03/16 10:39:04;;;;;;;15.00;14.07;;;15.30;78.90;;;;;;5127311;27;20467;-77
2023/03/16 10:41:34;;;;;;;15.57;14.67;;;15.70;77.70;;;;;;5127846;27;20910;-76
2023/03/16 10:44:06;;;;;;;15.27;14.47;;;16.40;75.50;;;;;;5128181;27;20451;-75
2023/03/16 10:46:38;;;;;;;16.13;15.23;;;17.30;74.60;;;;;;5128316;27;20452;-76
2023/03/16 10:49:07;;;;;;;15.77;14.97;;;17.80;71.40;;;;;;5128654;27;20852;-76
2023/03/16 10:51:37;;;;;;;13.80;13.03;;;17.60;68.70;;;;;;5128558;27;20862;-76
2023/03/16 10:54:13;;;;;;;13.43;12.83;;;17.00;69.30;;;;;;5128235;27;20448;-76
2023/03/16 10:56:41;;;;;;;15.73;14.97;;;16.20;70.90;;;;;;5128094;27;20455;-76
2023/03/16 10:59:28;;;;;;;15.07;14.27;;;16.60;72.20;;;;;;5128318;27;20452;-76
2023/03/16 11:01:55;;;;;;;16.50;15.60;;;17.10;68.00;;;;;;5128179;27;20453;-76
2023/03/16 11:04:21;;;;;;;14.73;13.93;;;17.60;67.90;;;;;;5128126;27;20475;-76
2023/03/16 11:06:53;;;;;;;14.53;13.83;;;17.40;67.40;;;;;;5128211;27;21282;-76
2023/03/16 11:09:23;;;;;;;14.20;13.60;;;17.00;67.10;;;;;;5127542;27;20542;-76
2023/03/16 11:11:52;;;;;;;14.20;13.60;;;15.90;69.20;;;;;;5116498;27;20448;-76
2023/03/16 11:14:22;;;;;;;14.30;13.33;;;16.00;71.20;;;;;;5114278;28;20449;-75
2023/03/16 11:16:55;;;;;;;16.10;15.00;;;16.70;70.00;;;;;;5114257;28;20473;-76
2023/03/16 11:19:26;;;;;;;14.67;13.90;;;16.80;67.50;;;;;;5114074;28;20562;-75
2023/03/16 11:21:58;;;;;;;14.27;13.70;;;16.80;66.60;;;;;;5114186;28;20453;-75
2023/03/16 11:24:32;;;;;;;14.73;13.97;;;16.30;66.70;;;;;;5113777;28;20461;-77
2023/03/16 11:27:07;;;;;;;13.07;12.47;;;16.80;65.80;;;;;;5113830;28;20478;-76
2023/03/16 11:29:46;;;;;;;14.23;13.63;;;16.80;66.70;;;;;;5113836;28;20943;-76
2023/03/16 11:32:18;;;;;;;13.90;13.20;;;16.40;66.60;;;;;;5113824;28;20901;-76
2023/03/16 11:34:47;;;;;;;14.33;13.50;;;16.40;65.60;;;;;;5113935;28;20445;-76
2023/03/16 11:37:24;;;;;;;16.17;15.33;;;17.20;66.00;;;;;;5113834;28;20817;-76
2023/03/16 11:39:58;;;;;;;16.20;15.40;;;17.60;62.70;;;;;;5113844;28;20947;-77
2023/03/16 11:42:34;;;;;;;14.00;13.30;;;17.60;62.40;;;;;;5113780;28;20481;-76
2023/03/16 11:45:11;;;;;;;13.53;12.63;;;16.80;63.10;;;;;;5113524;28;20448;-76
2023/03/16 11:48:20;;;;;;;14.37;13.77;;;16.60;63.90;;;;;;5113611;27;20481;-76
2023/03/16 11:50:58;;;;;;;13.50;13.00;;;16.90;62.70;;;;;;5113140;28;20577;-76
2023/03/16 11:53:36;;;;;;;13.43;12.73;;;17.00;63.10;;;;;;5113407;28;20464;-76
2023/03/16 11:56:12;;;;;;;14.00;13.40;;;17.30;62.00;;;;;;5113251;28;20449;-76
2023/03/16 11:58:52;;;;;;;13.97;13.27;;;17.80;61.80;;;;;;5113316;28;20472;-76
2023/03/16 12:01:26;;;;;;;13.73;13.13;;;17.80;60.00;;;;;;5113327;28;20444;-76
2023/03/16 12:04:06;;;;;;;14.07;13.47;;;18.40;60.40;;;;;;5113325;28;20459;-76
2023/03/16 12:07:00;;;;;;;13.73;13.03;;;17.60;59.40;;;;;;5113266;28;20962;-76
2023/03/16 12:09:51;;;;;;;14.90;14.20;;;17.90;61.20;;;;;;5112291;27;20886;-76
2023/03/16 12:12:39;;;;;;;13.77;13.07;;;18.30;58.90;;;;;;5110620;27;20469;-76
2023/03/16 12:15:26;;;;;;;14.20;13.40;;;17.90;59.20;;;;;;5113045;28;20449;-76
2023/03/16 12:17:57;;;;;;;14.13;13.53;;;17.40;60.50;;;;;;5113015;27;20468;-76
2023/03/16 12:20:28;;;;;;;14.60;13.70;;;17.10;59.90;;;;;;5112887;28;20496;-76
2023/03/16 12:22:59;;;;;;;14.40;13.70;;;16.70;61.20;;;;;;5111804;28;20534;-76
2023/03/16 12:25:30;;;;;;;13.63;12.97;;;16.60;61.50;;;;;;5112714;28;20454;-76
2023/03/16 12:28:01;;;;;;;13.30;12.70;;;16.70;61.80;;;;;;5112653;28;20812;-76
2023/03/16 12:30:40;;;;;;;14.00;13.30;;;16.80;61.30;;;;;;5112353;28;20477;-75
2023/03/16 12:33:14;;;;;;;13.77;13.07;;;17.70;60.20;;;;;;5112707;28;20453;-76
2023/03/16 12:35:47;;;;;;;12.90;12.30;;;18.20;59.30;;;;;;5112373;28;20955;-76
2023/03/16 12:38:39;;;;;;;14.47;13.67;;;17.40;59.40;;;;;;5112461;28;20936;-77
2023/03/16 12:41:15;;;;;;;14.67;13.97;;;17.80;59.50;;;;;;5112659;28;20502;-77
2023/03/16 12:44:03;;;;;;;14.27;13.57;;;18.50;58.40;;;;;;5112232;28;20459;-76
2023/03/16 12:46:41;;;;;;;14.20;13.50;;;17.60;58.10;;;;;;5112244;28;20454;-76
2023/03/16 12:49:09;;;;;;;13.70;12.97;;;17.40;59.00;;;;;;5112275;28;20457;-76
2023/03/16 12:51:37;;;;;;;15.87;14.87;;;18.30;58.10;;;;;;5112243;28;20513;-75
2023/03/16 12:54:04;;;;;;;16.00;15.20;;;17.80;58.50;;;;;;5112111;28;20808;-76
2023/03/16 12:56:33;;;;;;;14.37;13.67;;;16.80;59.40;;;;;;5112029;28;20453;-76
2023/03/16 12:59:01;;;;;;;14.47;13.50;;;16.80;60.30;;;;;;5111971;28;20445;-75
2023/03/16 13:01:30;;;;;;;14.17;13.37;;;16.70;60.40;;;;;;5111968;28;20456;-76
2023/03/16 13:04:07;;;;;;;13.73;13.03;;;16.70;60.50;;;;;;5112019;28;20449;-76
2023/03/16 13:06:36;;;;;;;13.80;13.10;;;16.70;59.80;;;;;;5112266;28;20449;-75
2023/03/16 13:09:06;;;;;;;14.53;13.80;;;16.90;59.60;;;;;;5111476;28;20475;-75
2023/03/16 13:11:44;;;;;;;13.50;12.70;;;17.40;59.30;;;;;;5111834;28;20917;-75
2023/03/16 13:14:16;;;;;;;12.33;11.80;;;17.60;59.00;;;;;;5111665;28;20460;-76
2023/03/16 13:16:44;;;;;;;15.57;14.83;;;18.10;57.90;;;;;;5111633;28;20819;-75
2023/03/16 13:19:25;;;;;;;13.53;13.03;;;17.70;57.70;;;;;;5111663;28;20801;-76
2023/03/16 13:22:02;;;;;;;14.00;13.20;;;17.20;58.40;;;;;;5111656;28;20452;-76
2023/03/16 13:24:37;;;;;;;13.97;13.00;;;17.20;58.50;;;;;;5111515;28;20499;-75
2023/03/16 13:27:13;;;;;;;13.80;13.00;;;17.30;58.50;;;;;;5111488;28;20449;-77
2023/03/16 13:29:40;;;;;;;12.87;12.37;;;18.00;57.00;;;;;;5111478;28;20449;-76
2023/03/16 13:32:11;;;;;;;14.00;13.13;;;17.50;57.30;;;;;;5111466;28;20453;-75
2023/03/16 13:34:48;;;;;;;13.90;13.10;;;17.50;57.40;;;;;;5111294;28;20453;-76
2023/03/16 13:37:18;;;;;;;14.20;13.57;;;17.10;57.90;;;;;;5111600;28;20909;-75
2023/03/16 13:39:53;;;;;;;12.63;11.90;;;16.20;58.80;;;;;;5111375;28;20446;-74
2023/03/16 13:42:22;;;;;;;12.20;11.60;;;16.40;59.40;;;;;;5111352;28;20509;-75
2023/03/16 13:44:52;;;;;;;13.30;12.60;;;16.10;59.10;;;;;;5111456;28;20932;-74
2023/03/16 13:47:20;;;;;;;12.40;11.70;;;15.20;59.70;;;;;;5111453;28;20457;-75
2023/03/16 13:49:49;;;;;;;12.80;12.10;;;14.70;61.60;;;;;;5111015;28;20893;-75
2023/03/16 13:52:23;;;;;;;11.97;11.23;;;14.60;63.20;;;;;;5111152;28;20448;-75
2023/03/16 13:54:51;;;;;;;12.73;12.13;;;14.20;62.70;;;;;;5111271;28;20457;-74
2023/03/16 13:57:20;;;;;;;14.40;13.60;;;13.90;64.00;;;;;;5111232;28;20528;-75
2023/03/16 13:59:47;;;;;;;12.40;11.80;;;13.80;64.90;;;;;;5111029;28;20449;-75
2023/03/16 14:02:18;;;;;;;12.67;12.07;;;13.80;66.40;;;;;;5110914;28;20510;-75
2023/03/16 14:04:45;;;;;;;12.77;11.97;;;13.80;66.60;;;;;;5111205;28;20449;-75
2023/03/16 14:07:17;;;;;;;12.80;12.20;;;13.80;67.10;;;;;;5110997;28;20506;-76
2023/03/16 14:09:45;;;;;;;12.50;11.80;;;13.90;65.50;;;;;;5110613;28;20477;-75
2023/03/16 14:12:14;;;;;;;12.07;11.37;;;13.90;65.80;;;;;;5111046;28;20498;-76
2023/03/16 14:14:41;;;;;;;12.47;11.83;;;14.10;64.60;;;;;;5110940;28;20480;-73
2023/03/16 14:17:12;;;;;;;11.70;11.10;;;14.20;65.40;;;;;;5110960;28;20449;-75
2023/03/16 14:19:43;;;;;;;12.10;11.50;;;14.10;65.30;;;;;;5110824;28;20494;-75
2023/03/16 14:22:17;;;;;;;10.87;10.33;;;14.00;65.20;;;;;;5110945;28;20460;-76
2023/03/16 14:24:46;;;;;;;12.17;11.47;;;13.90;66.60;;;;;;5110821;28;20901;-73
2023/03/16 14:27:19;;;;;;;14.57;13.27;;;14.00;67.20;;;;;;5111120;28;20449;-74
2023/03/16 14:29:53;;;;;;;12.90;12.20;;;13.80;65.50;;;;;;5110706;28;20456;-75
2023/03/16 14:32:26;;;;;;;11.97;11.27;;;13.80;65.60;;;;;;5111018;28;20468;-75
2023/03/16 14:34:59;;;;;;;12.43;11.67;;;13.90;66.30;;;;;;5110877;28;20456;-76
2023/03/16 14:37:34;;;;;;;13.33;12.63;;;13.90;65.90;;;;;;5110812;28;20806;-75
2023/03/16 14:40:04;;;;;;;12.30;11.60;;;13.80;65.30;;;;;;5110860;28;20452;-75
2023/03/16 14:42:32;;;;;;;12.80;12.00;;;13.70;65.20;;;;;;5110965;28;20484;-75
2023/03/16 14:45:01;;;;;;;13.40;12.70;;;13.70;65.20;;;;;;5110558;28;20453;-75
2023/03/16 14:47:30;;;;;;;11.87;11.33;;;13.70;65.60;;;;;;5113982;28;20449;-74
2023/03/16 14:50:03;;;;;;;12.83;12.03;;;13.60;66.60;;;;;;5114345;27;20486;-75
2023/03/16 14:52:32;;;;;;;13.43;12.67;;;13.70;67.60;;;;;;5114357;28;20449;-75
2023/03/16 14:55:00;;;;;;;12.63;11.93;;;13.80;69.80;;;;;;5114301;28;20437;-75
2023/03/16 14:57:27;;;;;;;12.60;12.00;;;13.70;67.70;;;;;;5114306;28;20966;-75
2023/03/16 14:59:54;;;;;;;13.60;12.90;;;13.60;68.80;;;;;;5114326;28;20456;-75
2023/03/16 15:02:25;;;;;;;12.70;11.90;;;13.50;69.20;;;;;;5114605;27;20452;-75
2023/03/16 15:04:52;;;;;;;13.00;12.30;;;13.60;69.30;;;;;;5114461;28;20460;-75
2023/03/16 15:07:24;;;;;;;12.60;12.00;;;13.70;69.50;;;;;;5114332;28;20453;-74
2023/03/16 15:09:54;;;;;;;12.40;11.50;;;13.70;69.50;;;;;;5114047;28;20531;-75
2023/03/16 15:12:23;;;;;;;12.27;11.67;;;13.70;69.70;;;;;;5114270;28;20481;-74
2023/03/16 15:17:35;;;;;;;13.10;12.43;;;13.70;70.10;;;;;;5114204;28;20428;-76
2023/03/16 15:20:02;;;;;;;12.23;11.43;;;13.80;69.60;;;;;;5114159;28;20453;-75
2023/03/16 15:22:31;;;;;;;12.67;12.07;;;13.70;70.20;;;;;;5113990;28;20457;-76
2023/03/16 15:25:03;;;;;;;12.70;12.10;;;13.70;70.20;;;;;;5113790;28;20552;-76
2023/03/16 15:27:34;;;;;;;12.23;11.63;;;13.70;71.50;;;;;;5114050;28;20790;-76
2023/03/16 15:30:01;;;;;;;12.20;11.60;;;13.80;70.20;;;;;;5113837;28;20609;-75
2023/03/16 15:32:27;;;;;;;12.20;11.50;;;13.70;70.50;;;;;;5113759;28;20944;-76
2023/03/16 15:34:54;;;;;;;12.57;11.90;;;13.90;70.00;;;;;;5113499;28;20487;-76
2023/03/16 15:37:23;;;;;;;12.50;11.90;;;13.90;70.80;;;;;;5113985;28;20448;-75
2023/03/16 15:39:50;;;;;;;11.80;11.20;;;13.90;68.80;;;;;;5113547;28;20452;-75
2023/03/16 15:42:19;;;;;;;12.17;11.67;;;13.90;66.90;;;;;;5113444;28;20449;-74
2023/03/16 15:44:47;;;;;;;11.70;11.10;;;14.00;67.10;;;;;;5113277;28;20544;-75
2023/03/16 15:47:14;;;;;;;12.10;11.33;;;13.90;67.40;;;;;;5113790;28;20456;-76
2023/03/16 15:49:40;;;;;;;12.30;11.53;;;13.90;67.90;;;;;;5113409;28;20453;-75
2023/03/16 15:52:21;;;;;;;13.60;12.70;;;13.90;68.00;;;;;;5113655;28;20485;-75
2023/03/16 15:54:48;;;;;;;12.40;11.60;;;13.90;67.00;;;;;;5113474;28;20450;-75
2023/03/16 15:57:15;;;;;;;10.40;9.90;;;13.90;66.80;;;;;;5113338;28;20456;-75
2023/03/16 15:59:43;;;;;;;12.20;11.60;;;13.90;67.70;;;;;;5113396;28;20453;-75
2023/03/16 16:02:27;;;;;;;11.60;11.00;;;13.80;69.30;;;;;;5112944;28;20504;-75
2023/03/16 16:04:53;;;;;;;13.40;12.70;;;13.70;70.60;;;;;;5113158;28;20480;-75
2023/03/16 16:07:21;;;;;;;11.13;10.60;;;13.80;71.40;;;;;;5113233;28;20936;-75
2023/03/16 16:09:48;;;;;;;12.00;11.40;;;13.80;70.50;;;;;;5112763;28;20516;-75
2023/03/16 16:12:16;;;;;;;11.13;10.53;;;13.80;72.00;;;;;;5112822;28;20999;-75
2023/03/16 16:14:44;;;;;;;11.97;11.37;;;13.60;72.70;;;;;;5113344;28;20449;-73
2023/03/16 16:17:12;;;;;;;11.83;11.33;;;13.50;72.50;;;;;;5112723;28;20548;-74
2023/03/16 16:19:39;;;;;;;11.83;11.33;;;13.50;72.60;;;;;;5112771;28;20826;-74
2023/03/16 16:22:10;;;;;;;12.70;12.20;;;13.40;72.50;;;;;;5112766;28;20445;-75
2023/03/16 16:24:37;;;;;;;13.27;12.50;;;13.30;73.00;;;;;;5112644;28;20445;-74
2023/03/16 16:27:05;;;;;;;13.30;12.50;;;13.30;74.40;;;;;;5112806;28;20481;-74
2023/03/16 16:29:33;;;;;;;13.07;11.93;;;13.20;75.60;;;;;;5113482;28;20445;-74
2023/03/16 16:32:01;;;;;;;12.23;11.50;;;13.20;74.80;;;;;;5113216;28;20481;-74
2023/03/16 16:34:28;;;;;;;12.40;11.70;;;13.20;75.60;;;;;;5113209;28;20940;-74
2023/03/16 16:36:56;;;;;;;13.70;12.80;;;13.10;75.40;;;;;;5112794;28;20446;-75
2023/03/16 16:39:23;;;;;;;11.73;11.03;;;13.00;76.10;;;;;;5112600;28;20445;-74
2023/03/16 16:41:53;;;;;;;12.00;11.33;;;12.90;75.50;;;;;;5112482;28;20445;-75
2023/03/16 16:44:22;;;;;;;11.47;10.73;;;12.90;74.80;;;;;;5112282;28;20886;-75
2023/03/16 16:46:50;;;;;;;13.13;12.00;;;12.90;75.20;;;;;;5112253;28;20447;-75
2023/03/16 16:49:23;;;;;;;12.30;11.60;;;12.90;75.70;;;;;;5112352;28;20948;-72
2023/03/16 16:51:51;;;;;;;12.03;11.43;;;12.70;75.90;;;;;;5112308;28;20895;-74
2023/03/16 16:54:20;;;;;;;12.70;12.10;;;12.70;76.00;;;;;;5111996;28;20456;-74
2023/03/16 16:56:47;;;;;;;12.83;11.93;;;12.60;76.00;;;;;;5112001;28;20453;-74
2023/03/16 16:59:17;;;;;;;11.90;11.30;;;12.50;76.90;;;;;;5111883;28;20454;-74
2023/03/16 17:01:45;;;;;;;10.50;10.00;;;12.40;76.90;;;;;;5111849;28;20919;-74
2023/03/16 17:04:16;;;;;;;11.13;10.43;;;12.30;76.20;;;;;;5111716;28;20453;-74
2023/03/16 17:06:44;;;;;;;11.20;10.70;;;12.20;76.90;;;;;;5111956;28;20445;-74
2023/03/16 17:09:13;;;;;;;11.17;10.67;;;12.20;77.80;;;;;;5110879;28;20472;-74
2023/03/16 17:11:41;;;;;;;10.10;9.30;;;12.10;77.80;;;;;;5111820;28;20590;-74
2023/03/16 17:14:08;;;;;;;10.37;9.87;;;12.10;77.60;;;;;;5111874;28;20441;-73
2023/03/16 17:16:36;;;;;;;11.33;10.73;;;12.00;77.70;;;;;;5111860;28;20494;-75
2023/03/16 17:19:05;;;;;;;10.43;10.03;;;11.90;78.30;;;;;;5111709;28;20453;-75
2023/03/16 17:21:32;;;;;;;9.93;9.53;;;11.80;78.20;;;;;;5111485;28;20815;-72
2023/03/16 17:24:01;;;;;;;12.20;11.60;;;11.80;78.70;;;;;;5111309;28;20540;-73
2023/03/16 17:26:31;;;;;;;10.63;10.13;;;11.70;78.80;;;;;;5111618;28;20453;-74
2023/03/16 17:29:01;;;;;;;10.33;9.83;;;11.60;78.90;;;;;;5111442;28;20453;-74
2023/03/16 17:31:33;;;;;;;11.00;10.40;;;11.70;79.20;;;;;;5111358;28;20497;-74
2023/03/16 17:34:01;;;;;;;10.87;10.37;;;11.60;79.40;;;;;;5111463;28;20547;-74
2023/03/16 17:36:28;;;;;;;11.47;10.77;;;11.50;79.80;;;;;;5111507;28;20688;-74
2023/03/16 17:38:56;;;;;;;10.03;9.53;;;11.50;80.50;;;;;;5111343;28;20452;-73
2023/03/16 17:41:27;;;;;;;10.83;10.33;;;11.50;80.90;;;;;;5111617;28;20453;-73
2023/03/16 17:43:57;;;;;;;10.60;10.00;;;11.30;80.80;;;;;;5111403;28;20456;-75
2023/03/16 17:46:26;;;;;;;12.20;11.50;;;11.30;81.50;;;;;;5111458;28;20445;-75
2023/03/16 17:48:54;;;;;;;11.47;10.87;;;11.30;82.40;;;;;;5111514;28;20462;-74
2023/03/16 17:51:24;;;;;;;11.43;10.17;;;11.30;82.80;;;;;;5111182;28;20542;-74
2023/03/16 17:53:51;;;;;;;10.77;10.17;;;11.20;83.30;;;;;;5111487;28;20449;-74
2023/03/16 17:56:20;;;;;;;11.37;10.77;;;11.10;84.00;;;;;;5111237;28;20464;-74
